Impacts TAF Board
For situational awareness. Not to be used for flight planning purposes.
IDs:

KFLL - Ft Lauderdale-Hollyw, FL, US

Issued at 0538 UTC 03 Jul 2022
Updated at 0617 UTC 03 Jul 2022
Potential Impact None Slight Moderate High
Time0553Z 03/07Z 03/08Z 03/09Z 03/10Z 03/11Z 03/12Z 03/13Z 03/14Z 03/15Z 03/16Z 03/17Z 03/18Z 03/19Z>>
Type OBS PRVL PRVL PRVL PRVL PRVL PRVL PRVL PRVL PRVL PRVL PRVL PRVL PRVL
VIS 10 >6 >6 >6 >6 >6 >6 >6 >6 >6 >6 >6 >6 >6
CIG -- -- -- -- -- -- -- -- -- -- -- -- -- --
Cover FEW SCT SCT SCT SCT SCT SCT SCT SCT SCT SCT SCT SCT SCT
FltCat VFR VFR VFR VFR VFR VFR VFR VFR VFR VFR VFR VFR VFR VFR
WX -- -- -- -- -- -- -- VCSH VCSH VCSH -- -- -- --
WDir 130 130 130 130 130 130 130 120 120 120 110 110 110 110
WSpd 11 8 8 8 8 8 8 10 10 10 11 11 11 11
WGst -- -- -- -- -- -- -- -- -- -- -- -- -- --
WSHgt -- -- -- -- -- -- -- -- -- -- -- -- -- --
WSDir -- -- -- -- -- -- -- -- -- -- -- -- -- --
WSSpd -- -- -- -- -- -- -- -- -- -- -- -- -- --
Raw TAF
KFLL 030538Z 0306/0412 13008KT P6SM SCT025
  FM031300 12010KT P6SM VCSH SCT025 SCT250
  FM031600 11011KT P6SM SCT035 SCT050
  FM040100 11009KT P6SM FEW025


Raw METAR
KFLL 030553Z 13011KT 10SM FEW025 FEW035 29/23 A3006 RMK AO2 SLP177 T02890233 10294 20289 58004
KFLL 030453Z 12010KT 10SM FEW025 29/23 A3006 RMK AO2 SLP180 T02890233 403170244
KFLL 030353Z 13009KT 10SM SCT026 29/24 A3007 RMK AO2 SLP182 T02890239

METAR Board
Radar Display
Forecast Discussion
For situational awareness. Not to be used for flight planning purposes.